Wiggins, Mississippi
Current Conditions -  °F | °C
As of 11:53 AM on Monday 24 Nov 2014 (Local Time) from KHBG Reporting Station
Clear Clear  
Wind Chill: 67°   Ceiling: Unl
Heat Index: 67°   Visibility: 10mi
Dew Point: 49°   Wind: 13mph
Humidity: 52%   Direction: 310°NW
Pressure: 29.89"   Gusts: NA
Location:  30.86°N, 89.14°W
Report Text: KHBG 241753Z AUTO 31011KT 10SM CLR 19/09 A2989 RMK AO2 SLP118 T01940094 10200 20183 50004
Loading
Personal Weather Stations






























Interactive Weather Map New forecast layout! Learn more

10-Day Weather Forecast

Advertisements
Track Severe Weather on mobile